Weather observations for the past three days for
Clinton Municipal Airport
Metric (Imperial)
Date Time (cdt) Wind (kph) Vis. (km) Weather Sky Cond. Temperature (ºC) Relative Humidity Wind Chill (°C) Heat Index (°C) Pressure Precipitation (cm)
Air Dwpt 6 hour altimeter (cm) sea level (mb) 1 hr 3 hr 6 hr
Max. Min.
01 19:56 S 11 16.09 Fair CLR 26.7 23.3 82% 29 76.02 1013.2
01 18:56 SW 11 16.09 Fair CLR 29.4 24.4 34.4 29.4 75% 35 76.02 1013.2
01 17:56 SW 15 16.09 Fair CLR 32.2 24.4 63% 39 76.02 1013.4
01 16:56 SW 9 16.09 Fair CLR 33.3 25 62% 41 76.05 1013.5
01 15:56 SW 13 16.09 Fair CLR 33.9 23.9 56% 40 76.05 1013.5
01 14:56 SW 20 16.09 Fair CLR 33.9 24.4 58% 41 76.07 1013.7
01 13:56 SW 15 16.09 Fair CLR 33.9 24.4 58% 41 76.1 1014.0
01 12:56 SW 15 16.09 Fair CLR 33.3 24.4 33.3 22.8 60% 40 76.12 1014.4
01 11:56 S 17 16.09 Fair CLR 31.7 26.1 72% 40 76.15 1014.7
01 10:56 S 9 16.09 Fair CLR 30.6 25.6 75% 38 76.15 1015.0
01 09:56 SW 7 16.09 A Few Clouds FEW120 27.8 25 85% 32 76.17 1015.5
01 08:56 SW 9 16.09 Fair CLR 25.6 23.9 90% 27 76.15 1015.0
01 07:56 SW 6 9.66 Fog/Mist CLR 23.9 23.3 96% 23 76.17 1015.3
01 06:56 SW 7 6.44 Fog/Mist CLR 22.8 22.2 25 21.7 96% 76.15 1014.9
01 05:56 SW 6 11.27 Fair CLR 22.8 22.2 96% 76.1 1014.4
01 04:56 SW 6 14.48 Fair CLR 22.2 22.2 100% 76.07 1014.2
01 03:56 SW 6 16.09 Fair CLR 23.9 22.8 94% 23 76.07 1013.7
01 02:56 NW 7 16.09 Fair CLR 23.9 22.8 94% 23 76.07 1014.0
01 01:56 SW 7 16.09 A Few Clouds FEW095 24.4 23.3 94% 24 76.07 1013.8
01 00:56 SW 9 16.09 Fair CLR 24.4 23.9 28.9 24.4 97% 24 76.07 1014.0
31 23:56 S 6 16.09 A Few Clouds FEW110 25 23.9 94% 26 76.05 1013.5
31 22:56 Calm 16.09 Fair CLR 24.4 23.3 94% 24 76.07 1013.8
31 21:56 S 6 16.09 Fair CLR 25 22.8 88% 26 76.05 1013.8
31 20:56 S 6 16.09 Fair CLR 26.1 23.3 85% 28 76.05 1013.4
31 19:56 S 9 16.09 Fair CLR 26.7 23.9 85% 29 76 1012.8
31 18:56 SW 9 16.09 Fair CLR 28.9 24.4 32.2 28.9 77% 34 76 1012.8
31 17:56 SW 17 16.09 Fair CLR 30 23.3 67% 34 75.97 1012.7
31 16:56 SW 13 16.09 A Few Clouds FEW120 31.1 24.4 68% 37 75.95 1012.5
31 15:56 SW 17 16.09 Fair CLR 32.2 23.9 62% 38 75.97 1012.7
31 14:56 W 11 16.09 Fair CLR 31.7 23.3 61% 37 75.97 1012.6
31 13:56 SW 13 16.09 Fair CLR 31.7 22.8 59% 36 75.97 1012.6
31 12:56 W 13 16.09 Fair CLR 31.1 22.2 31.1 23.9 59% 35 76 1012.9
31 10:56 SW 26 G 31 16.09 Partly Cloudy SCT110 30 21.7 61% 33 76 1013.1
31 09:56 SW 17 16.09 Fair CLR 28.3 21.1 65% 31 75.97 1012.5
31 08:56 SW 22 16.09 Fair CLR 26.1 20 69% 27 75.97 1012.5
31 07:56 SW 20 16.09 Partly Cloudy SCT100 SCT120 25 19.4 71% 26 75.95 1012.4
31 06:56 SW 17 16.09 Overcast OVC100 23.9 18.9 24.4 22.2 74% 25 75.95 1012.3
31 05:56 S 19 G 30 16.09 Overcast BKN095 OVC110 23.9 18.9 74% 25 75.95 1012.4
31 04:56 S 11 16.09 Partly Cloudy SCT100 22.2 18.9 82% 75.97 1012.7
31 03:56 S 11 16.09 Fair CLR 22.8 18.3 76% 75.97 1012.8
31 02:56 S 13 16.09 Fair CLR 23.3 18.9 76% 75.95 1012.4
31 01:56 S 15 16.09 Fair CLR 23.3 19.4 79% 76 1013.1
31 00:56 S 11 16.09 Fair CLR 22.2 20.6 23.9 22.2 91% 76.02 1013.4
30 23:56 S 15 16.09 Fair CLR 22.8 21.1 90% 76 1013.2
30 22:56 SE 13 16.09 Fair CLR 23.3 21.7 91% 76.05 1013.7
30 21:56 SE 17 16.09 Fair CLR 23.9 21.7 88% 24 76.07 1013.9
30 20:56 SE 17 16.09 Fair CLR 23.3 21.7 91% 76.05 1013.8
30 19:56 E 15 16.09 Fair CLR 22.2 21.1 94% 76.05 1013.7
30 18:56 E 13 16.09 Light Rain SCT120 22.8 21.7 22.8 21.7 94% 76.07 1014.2 0.23
30 17:56 E 6 16.09 Fair CLR 22.8 22.2 96% 76.1 1014.3
30 16:56 S 13 16.09 Thunderstorm Light Rain OVC085 22.8 21.7 94% 76.05 1013.9 0.1
30 15:56 S 17 11.27 Light Rain FEW045 BKN060 OVC090 22.2 21.7 97% 76.1 1014.7 0.08 0.13
30 14:56 S 15 16.09 Light Rain FEW037 22.8 21.1 90% 76.12 1014.8 0.03
30 13:56 SW 7 16.09 Light Rain FEW036 SCT046 BKN110 21.7 20.6 94% 76.17 1015.6 0.03
30 11:56 SW 15 16.09 Thunderstorm in Vicinity Light Rain BKN110 23.3 19.4 79% 76.15 1015.2
30 10:56 S 22 16.09 Mostly Cloudy BKN110 24.4 19.4 74% 25 76.02 1013.5
30 09:56 S 22 16.09 Mostly Cloudy BKN110 22.8 18.9 79% 76.05 1013.6
30 08:56 S 20 16.09 Partly Cloudy SCT110 22.2 18.9 82% 76.02 1013.3
30 07:56 SE 15 16.09 Mostly Cloudy FEW029 BKN110 21.7 18.3 81% 76.05 1014.0
30 06:56 SE 17 16.09 Mostly Cloudy FEW060 BKN110 21.1 18.3 22.8 21.1 84% 76.02 1013.6 0.53
30 05:56 S 17 16.09 Overcast FEW080 OVC100 21.1 18.3 84% 76 1013.2 0.03
30 04:56 S 22 16.09 Thunderstorm in Vicinity FEW060 OVC100 21.7 18.3 81% 76.02 1013.4
30 03:56 S 15 14.48 Thunderstorm Light Rain FEW020 BKN100 21.1 18.9 87% 76.05 1013.7 0.51 0.51
30 02:56 SW 17 12.87 Thunderstorm BKN110 22.2 17.8 76% 76.07 1014.0
30 01:56 S 15 16.09 A Few Clouds FEW110 22.2 17.8 76% 76.05 1013.7
30 00:56 S 19 16.09 Fair CLR 22.8 18.3 23.9 22.2 76% 76.07 1014.2
29 23:56 S 31 G 41 16.09 A Few Clouds FEW050 23.3 18.3 74% 76.05 1013.8
29 22:56 S 30 16.09 Overcast SCT080 OVC100 22.2 19.4 84% 76.05 1013.8
29 21:56 S 15 16.09 Fair CLR 22.8 18.3 76% 76.12 1014.9
29 20:56 S 19 16.09 Fair CLR 22.8 18.9 79% 76.07 1014.3
Date Time (cdt) Wind (kph) Vis. (km) Weather Sky Cond. Air Dwpt Max. Min. Relative Humidity Wind Chill (°C) Heat Index (°C) altimeter (cm) sea level (mb) 1 hr 3 hr 6 hr
6 hour
Temperature (ºC) Pressure Precipitation (cm)